ADDS TAF Data INFO
IDs: Format: Raw Decoded Include METARs

Data at: 0419 UTC 21 Jan 2018

KAEG 210347Z 21014KT 10SM BKN085 OVC110 09/M06 A2977

KAEG 202331Z 2100/2124 18012G21KT P6SM BKN100
  FM210500 24018G28KT 6SM -RASN OVC040
  FM210800 25015G25KT P6SM BKN040
  FM211800 29029G39KT P6SM BKN050